Weather at Lanzarote Airport

Public forecast

Using degrees Celsius for public forecast. Weather courtesy of forecast.io.

Current aviation weather report (METAR) for Lanzarote Airport

Retrieved 2021/01/26 02:30 UTC (0 seconds ago):

GCRR 260230Z AUTO 03009KT 9999 OVC026 18/14 Q1023

Aviation forecast (TAF) for Lanzarote Airport

Retrieved 2021-01-26 03:27 UTC (0 seconds ago):

TAF GCRR 260200Z 2603/2703 02012KT 9999 BKN020 TX23/2614Z TN17/2607Z